createdAt,value
2023-03-21T00:00:08.000Z,73.5
2023-03-21T00:01:24.000Z,73.3
2023-03-21T00:02:39.000Z,73.3
2023-03-21T00:03:55.000Z,73.4
2023-03-21T00:05:11.000Z,73.5
2023-03-21T00:06:27.000Z,73.7
2023-03-21T00:07:43.000Z,73.6
2023-03-21T00:10:15.000Z,73.8
2023-03-21T00:11:32.000Z,74
2023-03-21T00:12:48.000Z,74
2023-03-21T00:14:04.000Z,74
2023-03-21T00:15:20.000Z,74.1
2023-03-21T00:16:36.000Z,74.1
2023-03-21T00:17:52.000Z,74.2
2023-03-21T00:19:07.000Z,74.2
2023-03-21T00:20:24.000Z,74.1
2023-03-21T00:21:40.000Z,74
2023-03-21T00:22:56.000Z,74.3
2023-03-21T00:24:12.000Z,74.3
2023-03-21T00:25:28.000Z,74.3
2023-03-21T00:26:44.000Z,74.7
2023-03-21T00:28:00.000Z,75.5
2023-03-21T00:29:16.000Z,76
2023-03-21T00:30:31.000Z,76.2
2023-03-21T00:31:47.000Z,76.5
2023-03-21T00:33:03.000Z,76.6
2023-03-21T00:34:19.000Z,76.5
2023-03-21T00:35:35.000Z,76.6
2023-03-21T00:36:51.000Z,76.5
2023-03-21T00:38:07.000Z,76.3
2023-03-21T00:39:24.000Z,76.3
2023-03-21T00:40:40.000Z,76.2
2023-03-21T00:41:56.000Z,76
2023-03-21T00:43:12.000Z,76
2023-03-21T00:44:28.000Z,75.8
2023-03-21T00:45:44.000Z,75.7
2023-03-21T00:46:59.000Z,75.5
2023-03-21T00:48:16.000Z,75.4
2023-03-21T00:49:32.000Z,75.3
2023-03-21T00:50:48.000Z,75
2023-03-21T00:53:20.000Z,74.6
2023-03-21T00:54:36.000Z,74.5
2023-03-21T00:55:52.000Z,74.4
2023-03-21T00:57:07.000Z,74.2
2023-03-21T00:58:23.000Z,74
2023-03-21T00:59:38.000Z,74.1
2023-03-21T01:00:53.000Z,74.2
2023-03-21T01:02:09.000Z,74
2023-03-21T01:03:25.000Z,74
2023-03-21T01:04:40.000Z,74
2023-03-21T01:05:55.000Z,74.2
2023-03-21T01:07:12.000Z,74
2023-03-21T01:08:28.000Z,74.2
2023-03-21T01:09:43.000Z,74.2
2023-03-21T01:11:00.000Z,74.2
2023-03-21T01:12:16.000Z,74.2
2023-03-21T01:13:32.000Z,74.3
2023-03-21T01:14:48.000Z,74.3
2023-03-21T01:16:05.000Z,74.2
2023-03-21T01:17:21.000Z,74.2
2023-03-21T01:18:37.000Z,74.3
2023-03-21T01:19:53.000Z,74.4
2023-03-21T01:21:09.000Z,74.7
2023-03-21T01:22:24.000Z,74.7
2023-03-21T01:23:40.000Z,74.6
2023-03-21T01:24:57.000Z,74.6
2023-03-21T01:26:13.000Z,74.5
2023-03-21T01:27:29.000Z,74.6
2023-03-21T01:28:45.000Z,74.5
2023-03-21T01:30:01.000Z,74.4
2023-03-21T01:31:17.000Z,74.6
2023-03-21T01:32:33.000Z,74.3
2023-03-21T01:33:49.000Z,74.4
2023-03-21T01:35:05.000Z,74.4
2023-03-21T01:36:20.000Z,74.2
2023-03-21T01:38:51.000Z,73.8
2023-03-21T01:40:06.000Z,73.7
2023-03-21T01:41:21.000Z,73.5
2023-03-21T01:42:37.000Z,73.5
2023-03-21T01:43:54.000Z,73.4
2023-03-21T01:45:10.000Z,73.3
2023-03-21T01:46:26.000Z,73.6
2023-03-21T01:47:42.000Z,73.8
2023-03-21T01:48:58.000Z,73.9
2023-03-21T01:50:14.000Z,74.1
2023-03-21T01:51:30.000Z,74.1
2023-03-21T01:52:47.000Z,74
2023-03-21T01:54:03.000Z,74.1
2023-03-21T01:55:19.000Z,74
2023-03-21T01:56:35.000Z,74
2023-03-21T01:57:50.000Z,74.2
2023-03-21T01:59:06.000Z,74.1
2023-03-21T02:00:22.000Z,74
2023-03-21T02:01:38.000Z,74.1
2023-03-21T02:02:55.000Z,74.2
2023-03-21T02:04:11.000Z,74.3
2023-03-21T02:05:27.000Z,74.4
2023-03-21T02:06:42.000Z,74.5
2023-03-21T02:07:57.000Z,74.6
2023-03-21T02:09:13.000Z,74.6
2023-03-21T02:10:28.000Z,74.5
2023-03-21T02:11:44.000Z,74.5
2023-03-21T02:13:00.000Z,74.6
2023-03-21T02:14:16.000Z,74.8
2023-03-21T02:15:32.000Z,74.9
2023-03-21T02:16:48.000Z,75
2023-03-21T02:18:04.000Z,74.9
2023-03-21T02:19:20.000Z,74.7
2023-03-21T02:20:37.000Z,74.7
2023-03-21T02:21:53.000Z,74.6
2023-03-21T02:23:09.000Z,74.8
2023-03-21T02:24:25.000Z,74.6
2023-03-21T02:25:41.000Z,74.6
2023-03-21T02:26:57.000Z,74.5
2023-03-21T02:28:12.000Z,74.6
2023-03-21T02:29:28.000Z,74.6
2023-03-21T02:30:45.000Z,74.5
2023-03-21T02:32:01.000Z,74.4
2023-03-21T02:33:17.000Z,74.3
2023-03-21T02:34:33.000Z,74.4
2023-03-21T02:35:49.000Z,74.5
2023-03-21T02:37:04.000Z,74.5
2023-03-21T02:38:19.000Z,74.4
2023-03-21T02:39:36.000Z,74.4
2023-03-21T02:40:51.000Z,74.4
2023-03-21T02:42:06.000Z,74.2
2023-03-21T02:43:22.000Z,74.1
2023-03-21T02:44:38.000Z,73.8
2023-03-21T02:45:54.000Z,73.7
2023-03-21T02:47:10.000Z,73.3
2023-03-21T02:48:27.000Z,73.3
2023-03-21T02:49:43.000Z,73.2
2023-03-21T02:50:59.000Z,72.9
2023-03-21T02:52:15.000Z,72.7
2023-03-21T02:53:31.000Z,72.6
2023-03-21T02:54:47.000Z,72.6
2023-03-21T02:56:03.000Z,72.5
2023-03-21T02:57:19.000Z,72.4
2023-03-21T02:58:35.000Z,72.4
2023-03-21T02:59:51.000Z,72.4
2023-03-21T03:01:07.000Z,72.4
2023-03-21T03:02:23.000Z,72.4
2023-03-21T03:03:39.000Z,72.1
2023-03-21T03:04:55.000Z,72.2
2023-03-21T03:06:11.000Z,72.2
2023-03-21T03:07:27.000Z,72.5
2023-03-21T03:08:42.000Z,72.8
2023-03-21T03:09:57.000Z,73.1
2023-03-21T03:11:12.000Z,73.5
2023-03-21T03:12:28.000Z,73.7
2023-03-21T03:13:44.000Z,73.8
2023-03-21T03:15:00.000Z,73.9
2023-03-21T03:16:17.000Z,73.9
2023-03-21T03:17:33.000Z,73.7
2023-03-21T03:18:49.000Z,73.5
2023-03-21T03:20:05.000Z,73.3
2023-03-21T03:21:21.000Z,73.3
2023-03-21T03:22:37.000Z,73.3
2023-03-21T03:23:53.000Z,73.3
2023-03-21T03:25:09.000Z,73.3
2023-03-21T03:26:26.000Z,73.2
2023-03-21T03:27:41.000Z,73
2023-03-21T03:28:57.000Z,73
2023-03-21T03:30:13.000Z,73.2
2023-03-21T03:31:29.000Z,73.2
2023-03-21T03:32:45.000Z,73.3
2023-03-21T03:34:01.000Z,73.3
2023-03-21T03:35:18.000Z,73.2
2023-03-21T03:36:34.000Z,72.9
2023-03-21T03:37:50.000Z,72.8
2023-03-21T03:39:06.000Z,72.8
2023-03-21T03:40:22.000Z,72.7
2023-03-21T03:41:38.000Z,72.8
2023-03-21T03:42:54.000Z,72.9
2023-03-21T03:44:10.000Z,73
2023-03-21T03:45:25.000Z,73.1
2023-03-21T03:46:41.000Z,73.1
2023-03-21T03:47:57.000Z,73.2
2023-03-21T03:49:12.000Z,73.1
2023-03-21T03:50:27.000Z,73.1
2023-03-21T03:51:43.000Z,73.3
2023-03-21T03:53:00.000Z,73.3
2023-03-21T03:54:16.000Z,73.3
2023-03-21T03:55:32.000Z,73.5
2023-03-21T03:56:48.000Z,73.6
2023-03-21T03:58:04.000Z,74.1
2023-03-21T03:59:20.000Z,74.4
2023-03-21T04:00:36.000Z,75.1
2023-03-21T04:03:09.000Z,76.9
2023-03-21T04:04:25.000Z,77.2
2023-03-21T04:05:41.000Z,77.4
2023-03-21T04:06:56.000Z,77.5
2023-03-21T04:08:12.000Z,77.2
2023-03-21T04:09:28.000Z,77
2023-03-21T04:10:44.000Z,76.8
2023-03-21T04:12:01.000Z,76.8
2023-03-21T04:13:17.000Z,76.5
2023-03-21T04:14:33.000Z,76.4
2023-03-21T04:15:49.000Z,76
2023-03-21T04:17:04.000Z,75.7
2023-03-21T04:18:19.000Z,75.6
2023-03-21T04:19:34.000Z,75.6
2023-03-21T04:20:50.000Z,75.3
2023-03-21T04:22:06.000Z,75.4
2023-03-21T04:23:22.000Z,75.7
2023-03-21T04:24:38.000Z,75.9
2023-03-21T04:25:54.000Z,76
2023-03-21T04:27:10.000Z,76
2023-03-21T04:28:26.000Z,75.9
2023-03-21T04:29:42.000Z,75.9
2023-03-21T04:30:59.000Z,75.8
2023-03-21T04:32:15.000Z,75.7
2023-03-21T04:33:31.000Z,75.5
2023-03-21T04:34:47.000Z,75.3
2023-03-21T04:36:03.000Z,75
2023-03-21T04:37:18.000Z,74.9
2023-03-21T04:38:34.000Z,74.8
2023-03-21T04:39:51.000Z,74.9
2023-03-21T04:41:07.000Z,74.8
2023-03-21T04:42:23.000Z,74.8
2023-03-21T04:43:39.000Z,74.8
2023-03-21T04:44:55.000Z,74.8
2023-03-21T04:46:10.000Z,74.7
2023-03-21T04:47:25.000Z,74.8
2023-03-21T04:48:41.000Z,75
2023-03-21T04:49:58.000Z,75.3
2023-03-21T04:51:14.000Z,75.3
2023-03-21T04:52:29.000Z,75
2023-03-21T04:53:44.000Z,74.9
2023-03-21T04:55:00.000Z,74.6
2023-03-21T04:56:16.000Z,74.5
2023-03-21T04:57:32.000Z,74.5
2023-03-21T04:58:49.000Z,74.5
2023-03-21T05:00:05.000Z,74.5
2023-03-21T05:01:21.000Z,74.3
2023-03-21T05:02:37.000Z,74.4
2023-03-21T05:03:53.000Z,74.4
2023-03-21T05:05:09.000Z,74.3
2023-03-21T05:06:25.000Z,74.3
2023-03-21T05:07:42.000Z,74.1
2023-03-21T05:08:58.000Z,74.1
2023-03-21T05:10:13.000Z,74.6
2023-03-21T05:11:29.000Z,75.6
2023-03-21T05:12:45.000Z,76.8
2023-03-21T05:14:01.000Z,77.5
2023-03-21T05:15:17.000Z,78
2023-03-21T05:16:33.000Z,78
2023-03-21T05:17:50.000Z,78.4
2023-03-21T05:19:05.000Z,78.5
2023-03-21T05:20:20.000Z,78.6
2023-03-21T05:21:36.000Z,78.9
2023-03-21T05:22:51.000Z,79
2023-03-21T05:24:06.000Z,78.9
2023-03-21T05:25:22.000Z,78.6
2023-03-21T05:26:39.000Z,78.5
2023-03-21T05:27:55.000Z,78.2
2023-03-21T05:29:11.000Z,78
2023-03-21T05:30:27.000Z,77.8
2023-03-21T05:31:43.000Z,77.5
2023-03-21T05:32:59.000Z,77.2
2023-03-21T05:34:15.000Z,77
2023-03-21T05:35:32.000Z,76.8
2023-03-21T05:36:48.000Z,76.5
2023-03-21T05:38:04.000Z,76.5
2023-03-21T05:39:20.000Z,76.4
2023-03-21T05:41:51.000Z,76.5
2023-03-21T05:43:07.000Z,76.3
2023-03-21T05:44:23.000Z,76.1
2023-03-21T05:45:40.000Z,76
2023-03-21T05:46:56.000Z,75.7
2023-03-21T05:48:12.000Z,75.5
2023-03-21T05:49:28.000Z,75.3
2023-03-21T05:50:43.000Z,75
2023-03-21T05:51:58.000Z,74.6
2023-03-21T05:53:14.000Z,74
2023-03-21T05:54:30.000Z,73.7
2023-03-21T05:55:45.000Z,73.8
2023-03-21T05:57:01.000Z,73.5
2023-03-21T05:58:17.000Z,73.2
2023-03-21T05:59:33.000Z,72.8
2023-03-21T06:00:49.000Z,72.8
2023-03-21T06:02:05.000Z,72.7
2023-03-21T06:03:22.000Z,72.3
2023-03-21T06:04:38.000Z,72.2
2023-03-21T06:05:54.000Z,72.1
2023-03-21T06:07:10.000Z,72
2023-03-21T06:08:26.000Z,71.9
2023-03-21T06:09:42.000Z,71.8
2023-03-21T06:10:58.000Z,71.5
2023-03-21T06:12:13.000Z,71.5
2023-03-21T06:13:30.000Z,71.1
2023-03-21T06:14:46.000Z,71
2023-03-21T06:16:02.000Z,71
2023-03-21T06:17:18.000Z,70.8
2023-03-21T06:18:34.000Z,70.8
2023-03-21T06:19:50.000Z,70.8
2023-03-21T06:21:05.000Z,70.8
2023-03-21T06:22:21.000Z,71.3
2023-03-21T06:23:36.000Z,71
2023-03-21T06:24:51.000Z,71.2
2023-03-21T06:26:07.000Z,70.9
2023-03-21T06:27:23.000Z,70.5
2023-03-21T06:28:39.000Z,70.1
2023-03-21T06:29:55.000Z,69.8
2023-03-21T06:31:12.000Z,69.5
2023-03-21T06:32:28.000Z,69.3
2023-03-21T06:33:44.000Z,68.9
2023-03-21T06:35:00.000Z,68.4
2023-03-21T06:36:16.000Z,67.6
2023-03-21T06:37:32.000Z,66.8
2023-03-21T06:38:48.000Z,66.2
2023-03-21T06:40:04.000Z,66.2
2023-03-21T06:41:20.000Z,66.1
2023-03-21T06:42:36.000Z,66.1
2023-03-21T06:43:52.000Z,66
2023-03-21T06:45:08.000Z,65.7
2023-03-21T06:46:24.000Z,64.9
2023-03-21T06:47:40.000Z,63.8
2023-03-21T06:48:56.000Z,63.1
2023-03-21T06:50:12.000Z,62.8
2023-03-21T06:51:27.000Z,62.9
2023-03-21T06:52:43.000Z,63.3
2023-03-21T06:53:58.000Z,63.6
2023-03-21T06:55:13.000Z,63.4
2023-03-21T06:56:29.000Z,63.8
2023-03-21T06:57:45.000Z,64.1
2023-03-21T06:59:02.000Z,63.9
2023-03-21T07:00:18.000Z,63.9
2023-03-21T07:01:34.000Z,63.9
2023-03-21T07:02:50.000Z,64.1
2023-03-21T07:04:06.000Z,64.3
2023-03-21T07:05:22.000Z,64.5
2023-03-21T07:06:38.000Z,64
2023-03-21T07:07:54.000Z,63.4
2023-03-21T07:09:11.000Z,62.7
2023-03-21T07:10:27.000Z,61.6
2023-03-21T07:11:42.000Z,61.1
2023-03-21T07:12:58.000Z,61.1
2023-03-21T07:14:14.000Z,61
2023-03-21T07:15:30.000Z,61.7
2023-03-21T07:16:46.000Z,61.5
2023-03-21T07:18:03.000Z,60.9
2023-03-21T07:19:19.000Z,60
2023-03-21T07:20:34.000Z,59.3
2023-03-21T07:21:49.000Z,59.2
2023-03-21T07:23:05.000Z,59.6
2023-03-21T07:24:20.000Z,59.6
2023-03-21T07:25:35.000Z,59.6
2023-03-21T07:26:52.000Z,59.7
2023-03-21T07:28:08.000Z,59.5
2023-03-21T07:29:24.000Z,59.2
2023-03-21T07:30:40.000Z,58.4
2023-03-21T07:31:56.000Z,58.3
2023-03-21T07:33:12.000Z,57.6
2023-03-21T07:34:28.000Z,56.2
2023-03-21T07:35:44.000Z,55.6
2023-03-21T07:37:01.000Z,55.2
2023-03-21T07:38:17.000Z,55
2023-03-21T07:39:33.000Z,55
2023-03-21T07:40:49.000Z,55.4
2023-03-21T07:42:04.000Z,55.7
2023-03-21T07:43:20.000Z,55.8
2023-03-21T07:44:36.000Z,55.9
2023-03-21T07:45:53.000Z,55.7
2023-03-21T07:47:09.000Z,55.6
2023-03-21T07:48:25.000Z,55.3
2023-03-21T07:49:41.000Z,54.6
2023-03-21T07:50:56.000Z,53.4
2023-03-21T07:52:11.000Z,52.6
2023-03-21T07:53:27.000Z,52.9
2023-03-21T07:54:44.000Z,52.8
2023-03-21T07:56:00.000Z,53
2023-03-21T07:58:32.000Z,52.2
2023-03-21T07:59:48.000Z,52.1
2023-03-21T08:01:04.000Z,52.3
2023-03-21T08:02:20.000Z,52.6
2023-03-21T08:03:36.000Z,52.8
2023-03-21T08:04:53.000Z,53
2023-03-21T08:06:09.000Z,52.9
2023-03-21T08:07:25.000Z,52.6
2023-03-21T08:08:40.000Z,52.3
2023-03-21T08:09:56.000Z,52.1
2023-03-21T08:11:12.000Z,52.1
2023-03-21T08:12:28.000Z,51.8
2023-03-21T08:13:45.000Z,51.2
2023-03-21T08:15:01.000Z,50.7
2023-03-21T08:16:17.000Z,50.2
2023-03-21T08:17:33.000Z,49.3
2023-03-21T08:18:48.000Z,49.1
2023-03-21T08:20:03.000Z,49.1
2023-03-21T08:21:18.000Z,48.9
2023-03-21T08:22:34.000Z,49.5
2023-03-21T08:23:50.000Z,49.3
2023-03-21T08:25:06.000Z,49.6
2023-03-21T08:26:22.000Z,50
2023-03-21T08:27:38.000Z,50.4
2023-03-21T08:28:54.000Z,50.6
2023-03-21T08:30:10.000Z,50.7
2023-03-21T08:31:26.000Z,50.6
2023-03-21T08:32:43.000Z,50.8
2023-03-21T08:33:59.000Z,50.9
2023-03-21T08:35:15.000Z,50.6
2023-03-21T08:36:31.000Z,50.1
2023-03-21T08:37:47.000Z,49.8
2023-03-21T08:39:02.000Z,49.8
2023-03-21T08:40:18.000Z,49.6
2023-03-21T08:41:35.000Z,50
2023-03-21T08:42:51.000Z,50.3
2023-03-21T08:44:07.000Z,50.8
2023-03-21T08:45:23.000Z,50.2
2023-03-21T08:46:39.000Z,50.2
2023-03-21T08:49:10.000Z,49.5
2023-03-21T08:50:26.000Z,48.6
2023-03-21T08:51:41.000Z,48.6
2023-03-21T08:52:56.000Z,48.3
2023-03-21T08:54:11.000Z,47.9
2023-03-21T08:55:27.000Z,47.6
2023-03-21T08:56:43.000Z,47.6
2023-03-21T08:57:59.000Z,47.6
2023-03-21T08:59:15.000Z,47.4
2023-03-21T09:00:32.000Z,47.1
2023-03-21T09:01:48.000Z,47.1
2023-03-21T09:03:04.000Z,47
2023-03-21T09:04:20.000Z,46.9
2023-03-21T09:05:36.000Z,46.8
2023-03-21T09:06:52.000Z,47.1
2023-03-21T09:08:08.000Z,47.4
2023-03-21T09:09:25.000Z,47.6
2023-03-21T09:10:40.000Z,47.4
2023-03-21T09:11:56.000Z,47.7
2023-03-21T09:13:12.000Z,47.4
2023-03-21T09:14:28.000Z,47.6
2023-03-21T09:15:44.000Z,47.5
2023-03-21T09:17:00.000Z,47.4
2023-03-21T09:18:16.000Z,47.3
2023-03-21T09:19:32.000Z,47.6
2023-03-21T09:20:47.000Z,48
2023-03-21T09:22:03.000Z,48.1
2023-03-21T09:23:18.000Z,48.1
2023-03-21T09:24:33.000Z,48
2023-03-21T09:25:49.000Z,48
2023-03-21T09:27:06.000Z,47.7
2023-03-21T09:28:22.000Z,47.7
2023-03-21T09:29:38.000Z,47.4
2023-03-21T09:30:54.000Z,47.3
2023-03-21T09:32:10.000Z,47
2023-03-21T09:33:26.000Z,47.3
2023-03-21T09:34:42.000Z,47.3
2023-03-21T09:35:58.000Z,47.3
2023-03-21T09:37:15.000Z,47
2023-03-21T09:38:31.000Z,46.9
2023-03-21T09:39:47.000Z,46.9
2023-03-21T09:41:02.000Z,46.9
2023-03-21T09:42:18.000Z,47.2
2023-03-21T09:44:50.000Z,47.7
2023-03-21T09:46:07.000Z,47.8
2023-03-21T09:47:23.000Z,48.1
2023-03-21T09:48:39.000Z,48.3
2023-03-21T09:49:55.000Z,48.5
2023-03-21T09:51:10.000Z,48.2
2023-03-21T09:52:25.000Z,48.2
2023-03-21T09:53:41.000Z,48.5
2023-03-21T09:54:57.000Z,48.2
2023-03-21T09:56:13.000Z,48.4
2023-03-21T09:57:28.000Z,48.2
2023-03-21T09:58:44.000Z,47.8
2023-03-21T10:00:00.000Z,47.3
2023-03-21T10:01:16.000Z,47.4
2023-03-21T10:02:32.000Z,46.9
2023-03-21T10:03:48.000Z,47
2023-03-21T10:05:05.000Z,47.3
2023-03-21T10:06:21.000Z,47.3
2023-03-21T10:07:37.000Z,47
2023-03-21T10:08:53.000Z,47
2023-03-21T10:10:09.000Z,47
2023-03-21T10:11:25.000Z,46.9
2023-03-21T10:12:41.000Z,47.2
2023-03-21T10:13:57.000Z,47.4
2023-03-21T10:15:13.000Z,47
2023-03-21T10:16:29.000Z,47.1
2023-03-21T10:17:45.000Z,47.4
2023-03-21T10:19:01.000Z,47.3
2023-03-21T10:20:17.000Z,47.1
2023-03-21T10:21:33.000Z,47
2023-03-21T10:22:48.000Z,47.1
2023-03-21T10:24:04.000Z,47
2023-03-21T10:25:20.000Z,46.9
2023-03-21T10:26:35.000Z,46.7
2023-03-21T10:27:50.000Z,46.6
2023-03-21T10:29:06.000Z,46.5
2023-03-21T10:30:22.000Z,46.8
2023-03-21T10:31:38.000Z,46.9
2023-03-21T10:32:55.000Z,47
2023-03-21T10:34:11.000Z,47
2023-03-21T10:35:27.000Z,47.3
2023-03-21T10:36:43.000Z,46.6
2023-03-21T10:37:59.000Z,47
2023-03-21T10:39:15.000Z,46.8
2023-03-21T10:40:31.000Z,46.8
2023-03-21T10:41:47.000Z,46.8
2023-03-21T10:43:04.000Z,46.6
2023-03-21T10:44:19.000Z,46.8
2023-03-21T10:45:35.000Z,46.8
2023-03-21T10:46:51.000Z,46.6
2023-03-21T10:48:07.000Z,46.5
2023-03-21T10:49:23.000Z,46.5
2023-03-21T10:50:39.000Z,46.5
2023-03-21T10:51:56.000Z,45.9
2023-03-21T10:53:11.000Z,45.9
2023-03-21T10:54:26.000Z,45.9
2023-03-21T10:55:42.000Z,46
2023-03-21T10:56:57.000Z,45.9
2023-03-21T10:58:12.000Z,45.9
2023-03-21T10:59:28.000Z,45.8
2023-03-21T11:00:45.000Z,45.6
2023-03-21T11:02:01.000Z,45.5
2023-03-21T11:03:17.000Z,45.3
2023-03-21T11:04:33.000Z,45.5
2023-03-21T11:05:49.000Z,45.9
2023-03-21T11:07:05.000Z,46.2
2023-03-21T11:08:21.000Z,46.3
2023-03-21T11:09:37.000Z,46.3
2023-03-21T11:10:54.000Z,46.2
2023-03-21T11:12:10.000Z,46.3
2023-03-21T11:13:26.000Z,46.4
2023-03-21T11:14:41.000Z,46.4
2023-03-21T11:15:57.000Z,46.2
2023-03-21T11:17:13.000Z,46.7
2023-03-21T11:18:29.000Z,46.6
2023-03-21T11:19:46.000Z,46.9
2023-03-21T11:21:02.000Z,46.9
2023-03-21T11:22:18.000Z,46.8
2023-03-21T11:23:33.000Z,46.7
2023-03-21T11:24:48.000Z,46.6
2023-03-21T11:26:04.000Z,47
2023-03-21T11:27:19.000Z,47.1
2023-03-21T11:28:35.000Z,47.1
2023-03-21T11:29:51.000Z,47.5
2023-03-21T11:31:07.000Z,47.5
2023-03-21T11:32:23.000Z,47.1
2023-03-21T11:33:39.000Z,46.7
2023-03-21T11:34:55.000Z,46.7
2023-03-21T11:36:11.000Z,46.8
2023-03-21T11:37:27.000Z,46.9
2023-03-21T11:38:44.000Z,47.2
2023-03-21T11:40:00.000Z,47
2023-03-21T11:41:16.000Z,46.9
2023-03-21T11:42:32.000Z,46.5
2023-03-21T11:43:48.000Z,46
2023-03-21T11:45:03.000Z,46.1
2023-03-21T11:46:19.000Z,46.5
2023-03-21T11:47:36.000Z,46.7
2023-03-21T11:48:52.000Z,47
2023-03-21T11:50:08.000Z,47.1
2023-03-21T11:51:24.000Z,46.7
2023-03-21T11:52:40.000Z,46.1
2023-03-21T11:53:55.000Z,46.4
2023-03-21T11:55:10.000Z,46.6
2023-03-21T11:56:26.000Z,46.4
2023-03-21T11:57:41.000Z,46.3
2023-03-21T11:58:56.000Z,46.2
2023-03-21T12:00:12.000Z,46.8
2023-03-21T12:01:28.000Z,46.2
2023-03-21T12:02:44.000Z,45.6
2023-03-21T12:04:00.000Z,45.9
2023-03-21T12:05:17.000Z,45.9
2023-03-21T12:06:33.000Z,46
2023-03-21T12:07:49.000Z,45.6
2023-03-21T12:09:05.000Z,45.6
2023-03-21T12:10:21.000Z,45.2
2023-03-21T12:11:37.000Z,45.5
2023-03-21T12:12:53.000Z,45.8
2023-03-21T12:14:09.000Z,45.9
2023-03-21T12:15:25.000Z,45.6
2023-03-21T12:16:41.000Z,45.8
2023-03-21T12:17:57.000Z,45.3
2023-03-21T12:19:13.000Z,46.1
2023-03-21T12:20:29.000Z,46.2
2023-03-21T12:21:45.000Z,46.4
2023-03-21T12:23:01.000Z,46.1
2023-03-21T12:24:17.000Z,45.6
2023-03-21T12:25:32.000Z,45.5
2023-03-21T12:26:48.000Z,45.7
2023-03-21T12:28:03.000Z,46
2023-03-21T12:29:18.000Z,45.9
2023-03-21T12:30:34.000Z,46.4
2023-03-21T12:31:50.000Z,46.1
2023-03-21T12:33:07.000Z,46
2023-03-21T12:34:23.000Z,46.1
2023-03-21T12:35:39.000Z,46.4
2023-03-21T12:36:55.000Z,46.4
2023-03-21T12:38:11.552Z,45.5
2023-03-21T12:39:27.000Z,45.3
2023-03-21T12:40:43.000Z,45.7
2023-03-21T12:41:59.000Z,45.9
2023-03-21T12:43:16.079Z,46
2023-03-21T12:44:32.000Z,46.6
2023-03-21T12:45:47.000Z,47.1
2023-03-21T12:47:03.000Z,47.2
2023-03-21T12:48:19.000Z,47
2023-03-21T12:49:35.000Z,46.8
2023-03-21T12:50:51.000Z,46.3
2023-03-21T12:52:08.000Z,45.9
2023-03-21T12:53:24.000Z,45.2
2023-03-21T12:54:39.000Z,45.3
2023-03-21T12:55:54.000Z,45.9
2023-03-21T12:57:10.000Z,46.1
2023-03-21T12:58:25.000Z,46.1
2023-03-21T12:59:40.000Z,45.5
2023-03-21T13:00:57.000Z,45.3
2023-03-21T13:02:13.000Z,45
2023-03-21T13:03:29.000Z,45.1
2023-03-21T13:04:45.000Z,45.5
2023-03-21T13:06:01.000Z,45.8
2023-03-21T13:07:17.000Z,45.9
2023-03-21T13:08:33.000Z,46.1
2023-03-21T13:09:49.000Z,46.9
2023-03-21T13:11:06.000Z,47
2023-03-21T13:12:22.000Z,47
2023-03-21T13:13:38.000Z,46.7
2023-03-21T13:14:54.000Z,46.6
2023-03-21T13:16:09.000Z,46.4
2023-03-21T13:17:25.000Z,46
2023-03-21T13:18:41.000Z,46.3
2023-03-21T13:19:58.000Z,46.7
2023-03-21T13:21:14.000Z,46.7
2023-03-21T13:22:30.000Z,46.6
2023-03-21T13:23:46.000Z,46.5
2023-03-21T13:25:02.000Z,46.5
2023-03-21T13:26:17.000Z,46.7
2023-03-21T13:27:32.000Z,46.8
2023-03-21T13:28:48.000Z,47
2023-03-21T13:30:05.000Z,46.9
2023-03-21T13:32:36.000Z,47
2023-03-21T13:33:51.000Z,47.1
2023-03-21T13:35:06.000Z,47.3
2023-03-21T13:36:22.000Z,46.8
2023-03-21T13:37:38.000Z,46.5
2023-03-21T13:38:55.000Z,46.9
2023-03-21T13:40:11.000Z,46.9
2023-03-21T13:41:27.000Z,46.7
2023-03-21T13:42:43.000Z,46.5
2023-03-21T13:43:59.000Z,46.4
2023-03-21T13:45:15.000Z,46.3
2023-03-21T13:47:48.000Z,45.7
2023-03-21T13:49:04.000Z,45.4
2023-03-21T13:50:20.000Z,45.1
2023-03-21T13:51:35.000Z,45
2023-03-21T13:52:51.000Z,44.9
2023-03-21T13:54:07.000Z,45
2023-03-21T13:55:23.000Z,45
2023-03-21T13:56:39.000Z,45.2
2023-03-21T13:57:56.000Z,45.3
2023-03-21T13:59:12.000Z,45.2
2023-03-21T14:00:28.000Z,45.7
2023-03-21T14:01:43.000Z,45.7
2023-03-21T14:02:59.000Z,45.5
2023-03-21T14:04:14.000Z,45.6
2023-03-21T14:05:29.000Z,45.4
2023-03-21T14:06:46.000Z,45.4
2023-03-21T14:08:02.000Z,45.8
2023-03-21T14:09:18.000Z,45.9
2023-03-21T14:10:34.000Z,46
2023-03-21T14:11:50.000Z,46.3
2023-03-21T14:13:06.000Z,46.6
2023-03-21T14:14:22.000Z,46.7
2023-03-21T14:15:39.000Z,46.7
2023-03-21T14:16:55.000Z,46.7
2023-03-21T14:18:11.000Z,46.7
2023-03-21T14:19:27.000Z,46.8
2023-03-21T14:20:43.000Z,47
2023-03-21T14:21:58.000Z,47.1
2023-03-21T14:23:14.000Z,47.2
2023-03-21T14:25:47.000Z,47.2
2023-03-21T14:27:03.000Z,47.6
2023-03-21T14:28:19.000Z,47.7
2023-03-21T14:29:35.000Z,47.5
2023-03-21T14:30:51.000Z,47.7
2023-03-21T14:32:06.000Z,48.4
2023-03-21T14:33:21.000Z,48.6
2023-03-21T14:34:37.000Z,49.3
2023-03-21T14:35:52.000Z,49.4
2023-03-21T14:37:08.000Z,49.4
2023-03-21T14:38:24.000Z,49.1
2023-03-21T14:39:40.000Z,49
2023-03-21T14:40:56.000Z,48.6
2023-03-21T14:42:12.000Z,48.3
2023-03-21T14:43:29.000Z,48.2
2023-03-21T14:44:45.000Z,48.3
2023-03-21T14:46:01.000Z,48.4
2023-03-21T14:47:17.000Z,48.6
2023-03-21T14:48:33.000Z,48.5
2023-03-21T14:49:49.000Z,47.9
2023-03-21T14:51:05.000Z,47.6
2023-03-21T14:52:20.000Z,47.7
2023-03-21T14:53:37.000Z,47.6
2023-03-21T14:54:53.000Z,47.6
2023-03-21T14:56:09.000Z,47.3
2023-03-21T14:57:25.000Z,47.4
2023-03-21T14:58:41.000Z,47.6
2023-03-21T14:59:57.000Z,47.7
2023-03-21T15:01:12.000Z,48
2023-03-21T15:02:28.000Z,48.1
2023-03-21T15:03:44.000Z,48.5
2023-03-21T15:05:00.000Z,48.5
2023-03-21T15:06:16.000Z,48.8
2023-03-21T15:07:32.000Z,48.9
2023-03-21T15:08:48.000Z,48.5
2023-03-21T15:10:04.000Z,48.4
2023-03-21T15:11:20.000Z,48.5
2023-03-21T15:12:37.000Z,48.3
2023-03-21T15:13:53.000Z,48.1
2023-03-21T15:15:09.000Z,47.9
2023-03-21T15:16:25.000Z,47.9
2023-03-21T15:17:41.000Z,48.4
2023-03-21T15:18:56.000Z,48.6
2023-03-21T15:20:12.000Z,48.2
2023-03-21T15:21:29.000Z,48
2023-03-21T15:22:45.000Z,48
2023-03-21T15:24:01.000Z,48.6
2023-03-21T15:25:17.000Z,49.1
2023-03-21T15:26:33.000Z,49.1
2023-03-21T15:27:48.000Z,48.9
2023-03-21T15:29:03.000Z,48.9
2023-03-21T15:30:19.000Z,49
2023-03-21T15:31:34.000Z,49.3
2023-03-21T15:34:05.000Z,49.4
2023-03-21T15:35:20.000Z,49.5
2023-03-21T15:36:35.000Z,49.7
2023-03-21T15:37:51.000Z,50.2
2023-03-21T15:39:08.000Z,50.4
2023-03-21T15:41:40.000Z,50.9
2023-03-21T15:42:56.000Z,50.9
2023-03-21T15:44:12.000Z,50.8
2023-03-21T15:45:28.000Z,51.2
2023-03-21T15:46:44.000Z,51.1
2023-03-21T15:48:00.000Z,51.3
2023-03-21T15:49:17.000Z,51.3
2023-03-21T15:50:33.000Z,51.3
2023-03-21T15:51:49.000Z,51.3
2023-03-21T15:53:04.000Z,51.2
2023-03-21T15:54:20.000Z,51
2023-03-21T15:55:36.000Z,50.8
2023-03-21T15:56:52.000Z,50.9
2023-03-21T15:58:09.000Z,51.1
2023-03-21T15:59:25.000Z,51.3
2023-03-21T16:00:41.000Z,51.4
2023-03-21T16:01:57.000Z,51.6
2023-03-21T16:03:12.000Z,51.8
2023-03-21T16:04:27.000Z,52
2023-03-21T16:05:43.000Z,52.2
2023-03-21T16:07:00.000Z,52
2023-03-21T16:08:16.000Z,52.2
2023-03-21T16:09:32.000Z,52.2
2023-03-21T16:10:47.000Z,52.3
2023-03-21T16:12:03.000Z,52.3
2023-03-21T16:13:19.000Z,52.3
2023-03-21T16:14:35.000Z,52.4
2023-03-21T16:15:51.000Z,52.5
2023-03-21T16:17:08.000Z,52.8
2023-03-21T16:18:24.000Z,52.4
2023-03-21T16:19:40.000Z,52.1
2023-03-21T16:20:56.000Z,52.4
2023-03-21T16:22:12.000Z,53
2023-03-21T16:23:28.000Z,53.5
2023-03-21T16:24:44.000Z,53.5
2023-03-21T16:26:01.000Z,54
2023-03-21T16:27:17.000Z,54.3
2023-03-21T16:28:32.000Z,54.8
2023-03-21T16:29:47.000Z,55.1
2023-03-21T16:31:02.000Z,55.3
2023-03-21T16:32:17.000Z,55.3
2023-03-21T16:33:32.000Z,55.4
2023-03-21T16:34:49.000Z,55.4
2023-03-21T16:36:05.000Z,55.7
2023-03-21T16:37:21.000Z,55.9
2023-03-21T16:39:53.000Z,56
2023-03-21T16:41:09.000Z,56.2
2023-03-21T16:42:25.000Z,56.4
2023-03-21T16:43:41.000Z,56.6
2023-03-21T16:44:58.000Z,56.9
2023-03-21T16:46:14.000Z,56.9
2023-03-21T16:47:30.000Z,57
2023-03-21T16:48:46.000Z,57.1
2023-03-21T16:50:02.000Z,57.1
2023-03-21T16:51:17.000Z,57.1
2023-03-21T16:52:33.000Z,57.1
2023-03-21T16:53:50.000Z,57.3
2023-03-21T16:55:06.000Z,57.3
2023-03-21T16:57:38.000Z,56.4
2023-03-21T16:58:54.000Z,56.2
2023-03-21T17:00:09.000Z,55.7
2023-03-21T17:01:24.000Z,54.2
2023-03-21T17:02:41.000Z,53.6
2023-03-21T17:03:57.000Z,52.6
2023-03-21T17:05:13.000Z,49.6
2023-03-21T17:06:28.000Z,50.2
2023-03-21T17:07:43.000Z,50.8
2023-03-21T17:08:59.000Z,51
2023-03-21T17:10:15.000Z,49.9
2023-03-21T17:11:31.000Z,47.9
2023-03-21T17:12:48.000Z,48
2023-03-21T17:14:04.000Z,46.2
2023-03-21T17:15:20.000Z,45.5
2023-03-21T17:16:36.000Z,44.5
2023-03-21T17:17:52.000Z,43.4